Time;durP1;ratioP1;P1;durP2;ratioP2;P2;SDS_P1;SDS_P2;PMS_P1;PMS_P2;Temp;Humidity;BMP_temperature;BMP_pressure;BME280_temperature;BME280_humidity;BME280_pressure;Samples;Min_cycle;Max_cycle;Signal;HPM_P1;HPM_P2
2023/06/12 00:00:12;;;;;;;;;;;;;;;11.19;63.60;100996.98;104910;1262;75692;-63
2023/06/12 00:03:02;;;;;;;6.30;2.40;;;;;;;11.17;63.73;100994.77;104915;1260;84701;-62
2023/06/12 00:05:32;;;;;;;3.20;2.20;;;;;;;11.20;63.85;100994.36;104918;1265;72390;-61
2023/06/12 00:08:01;;;;;;;2.70;2.00;;;;;;;11.24;64.06;100994.05;104921;1265;69218;-65
2023/06/12 00:10:30;;;;;;;5.00;2.50;;;;;;;11.22;64.06;100992.20;104968;1262;69164;-64
2023/06/12 00:12:59;;;;;;;3.70;2.20;;;;;;;11.20;64.21;100997.86;104974;1265;74651;-65
2023/06/12 00:15:30;;;;;;;5.90;2.30;;;;;;;11.20;64.32;100996.79;104957;1267;83630;-65
2023/06/12 00:18:00;;;;;;;3.30;2.20;;;;;;;11.24;64.57;100999.30;104885;1260;73753;-63
2023/06/12 00:20:30;;;;;;;5.30;2.60;;;;;;;11.25;64.89;100998.91;104948;1260;69202;-65
2023/06/12 00:22:59;;;;;;;3.30;2.30;;;;;;;11.27;65.14;100998.13;104949;1261;69208;-63
2023/06/12 00:25:30;;;;;;;4.50;2.40;;;;;;;11.30;65.09;100997.70;104890;1265;75887;-62
2023/06/12 00:28:01;;;;;;;4.60;2.40;;;;;;;11.28;65.06;100996.54;104919;1260;83816;-61
2023/06/12 00:30:32;;;;;;;7.70;2.20;;;;;;;11.26;65.31;100993.30;104938;1263;73573;-61
2023/06/12 00:33:01;;;;;;;4.60;2.20;;;;;;;11.25;65.23;100993.15;104755;1262;69262;-61
2023/06/12 00:35:33;;;;;;;2.70;2.30;;;;;;;11.22;65.43;100994.80;104929;1265;69211;-61
2023/06/12 00:38:02;;;;;;;3.30;2.00;;;;;;;11.22;65.43;100995.16;104973;1261;74750;-63
2023/06/12 00:40:33;;;;;;;5.60;2.60;;;;;;;11.23;65.31;100997.92;104902;1261;82618;-66
2023/06/12 00:43:02;;;;;;;3.80;2.80;;;;;;;11.23;65.36;100997.05;104920;1261;73780;-63
2023/06/12 00:45:33;;;;;;;5.90;2.60;;;;;;;11.22;65.79;101004.95;104900;1261;69230;-65
2023/06/12 00:48:05;;;;;;;4.10;2.30;;;;;;;11.23;66.26;101004.75;104943;1265;69193;-63
2023/06/12 00:50:36;;;;;;;4.20;2.40;;;;;;;11.23;66.41;101008.95;104892;1261;74616;-64
2023/06/12 00:53:04;;;;;;;3.60;2.40;;;;;;;11.25;66.45;101008.36;104901;1260;83414;-62
2023/06/12 00:55:33;;;;;;;3.60;2.40;;;;;;;11.24;66.29;101006.30;104937;1261;74769;-63
2023/06/12 00:58:03;;;;;;;4.50;2.50;;;;;;;11.25;66.40;101008.36;104899;1265;69216;-61
2023/06/12 01:00:38;;;;;;;4.60;2.70;;;;;;;11.24;66.51;101009.95;104931;1264;69109;-63
2023/06/12 01:03:10;;;;;;;3.50;2.70;;;;;;;11.23;66.60;101007.04;104871;1260;75215;-63
2023/06/12 01:05:43;;;;;;;5.70;3.00;;;;;;;11.20;66.62;101004.31;104912;1265;83026;-61
2023/06/12 01:08:21;;;;;;;2.80;2.40;;;;;;;11.19;66.40;101004.50;104838;1267;72481;-63
2023/06/12 01:11:12;;;;;;;6.30;2.80;;;;;;;11.21;66.54;101003.60;104867;1260;69247;-61
2023/06/12 01:13:41;;;;;;;3.60;2.80;;;;;;;11.18;66.74;101004.21;104923;1260;69267;-62
2023/06/12 01:16:12;;;;;;;5.00;2.90;;;;;;;11.15;67.01;101004.95;104948;1260;75608;-61
2023/06/12 01:18:41;;;;;;;4.50;2.50;;;;;;;11.13;66.95;101004.87;104773;1266;82842;-61
2023/06/12 01:21:17;;;;;;;5.30;3.00;;;;;;;11.10;67.17;101000.59;104922;1261;73516;-61
2023/06/12 01:24:05;;;;;;;4.40;3.00;;;;;;;11.09;66.95;100998.17;104778;1268;69277;-62
2023/06/12 01:26:52;;;;;;;4.90;2.80;;;;;;;11.07;66.85;100998.41;104941;1260;69116;-63
2023/06/12 01:29:50;;;;;;;4.80;2.80;;;;;;;11.04;66.87;101000.92;104830;1261;75688;-61
2023/06/12 01:32:20;;;;;;;4.80;3.20;;;;;;;11.05;66.89;100998.11;104769;1264;82586;-63
2023/06/12 01:35:00;;;;;;;5.80;2.80;;;;;;;11.03;66.92;100998.34;104843;1260;72569;-64
2023/06/12 01:37:46;;;;;;;5.90;2.90;;;;;;;11.04;67.21;101001.29;104763;1260;69193;-63
2023/06/12 01:40:25;;;;;;;4.80;3.10;;;;;;;11.03;67.61;101012.34;104975;1265;69191;-63
2023/06/12 01:42:58;;;;;;;3.70;2.90;;;;;;;11.05;67.89;101019.80;104789;1261;74801;-64
2023/06/12 01:45:26;;;;;;;4.30;3.00;;;;;;;11.04;67.97;101011.27;104755;1265;83303;-63
2023/06/12 01:47:55;;;;;;;5.10;3.20;;;;;;;11.06;68.44;101011.88;104903;1260;73513;-60
2023/06/12 01:50:24;;;;;;;3.70;2.80;;;;;;;11.12;68.87;101008.58;104852;1260;69155;-61
2023/06/12 01:52:53;;;;;;;5.70;3.00;;;;;;;11.14;68.82;101012.34;105048;1265;69192;-61
2023/06/12 01:55:22;;;;;;;5.40;3.50;;;;;;;11.12;68.84;101006.48;104825;1261;75657;-63
2023/06/12 01:57:52;;;;;;;5.90;3.20;;;;;;;11.09;68.87;101009.00;104805;1266;84258;-60
2023/06/12 02:00:33;;;;;;;4.70;3.30;;;;;;;11.05;68.82;101010.34;105040;1261;73650;-62
2023/06/12 02:03:02;;;;;;;5.10;3.20;;;;;;;10.99;68.88;101010.36;104762;1261;69331;-63
2023/06/12 02:05:31;;;;;;;4.60;3.20;;;;;;;10.95;68.94;101011.54;104990;1265;69270;-62
2023/06/12 02:08:00;;;;;;;6.60;3.50;;;;;;;10.89;68.90;101009.40;104972;1260;75668;-60
2023/06/12 02:10:29;;;;;;;4.80;3.00;;;;;;;10.86;69.08;101011.58;104793;1267;82297;-63
2023/06/12 02:12:58;;;;;;;6.10;3.60;;;;;;;10.85;69.28;101013.71;104871;1260;73393;-63
2023/06/12 02:15:31;;;;;;;7.50;3.10;;;;;;;10.80;69.42;101010.19;104930;1261;69122;-63
2023/06/12 02:18:01;;;;;;;6.50;3.40;;;;;;;10.73;69.54;101006.89;104945;1261;69115;-62
2023/06/12 02:20:30;;;;;;;10.40;3.30;;;;;;;10.71;69.70;101006.08;104999;1261;75885;-60
2023/06/12 02:23:02;;;;;;;5.40;2.80;;;;;;;10.67;69.84;101004.44;104844;1265;83157;-63
2023/06/12 02:25:30;;;;;;;6.00;3.20;;;;;;;10.63;70.02;100998.96;104755;1263;73796;-61
2023/06/12 02:28:01;;;;;;;8.10;3.40;;;;;;;10.58;69.83;101003.30;104950;1260;69049;-61
2023/06/12 02:30:29;;;;;;;5.40;3.40;;;;;;;10.54;70.14;101003.59;104950;1265;69206;-63
2023/06/12 02:32:58;;;;;;;6.50;3.50;;;;;;;10.51;70.24;101003.12;104882;1262;75875;-63
2023/06/12 02:35:27;;;;;;;6.60;3.60;;;;;;;10.48;70.32;101007.59;104995;1261;82310;-60
2023/06/12 02:37:57;;;;;;;6.40;3.70;;;;;;;10.46;70.54;101008.31;104720;1263;73738;-63
2023/06/12 02:40:26;;;;;;;4.50;3.30;;;;;;;10.44;70.58;101005.58;104752;1262;69293;-62
2023/06/12 02:42:58;;;;;;;4.50;3.50;;;;;;;10.46;70.61;101006.59;104818;1260;69350;-61
2023/06/12 02:45:27;;;;;;;9.10;3.80;;;;;;;10.44;70.85;101008.02;104798;1263;75392;-64
2023/06/12 02:47:56;;;;;;;8.60;3.50;;;;;;;10.45;70.83;101009.58;104964;1265;83440;-63
2023/06/12 02:50:28;;;;;;;5.10;3.20;;;;;;;10.44;70.76;101012.04;104934;1260;73302;-60
2023/06/12 02:53:01;;;;;;;7.20;3.80;;;;;;;10.41;70.88;101011.09;104878;1266;69269;-61
2023/06/12 02:55:31;;;;;;;5.20;3.50;;;;;;;10.39;71.12;101013.42;104768;1261;69123;-63
2023/06/12 02:58:01;;;;;;;5.70;4.10;;;;;;;10.41;71.37;101017.20;104833;1266;75869;-64
2023/06/12 03:00:30;;;;;;;5.80;3.90;;;;;;;10.40;71.56;101018.28;105059;1265;83168;-61
2023/06/12 03:03:02;;;;;;;5.80;3.50;;;;;;;10.40;71.63;101023.86;104868;1261;73427;-60
2023/06/12 03:05:32;;;;;;;5.60;4.00;;;;;;;10.41;71.93;101026.30;104863;1265;69261;-61
2023/06/12 03:08:02;;;;;;;9.10;3.60;;;;;;;10.42;72.08;101026.09;104774;1267;69243;-61
2023/06/12 03:10:35;;;;;;;6.10;3.70;;;;;;;10.42;72.35;101027.47;104915;1264;75384;-61
2023/06/12 03:13:03;;;;;;;7.50;3.70;;;;;;;10.43;72.40;101023.80;104937;1260;83639;-62
2023/06/12 03:15:34;;;;;;;6.10;4.00;;;;;;;10.46;72.50;101029.46;104802;1262;73403;-60
2023/06/12 03:18:03;;;;;;;5.60;4.70;;;;;;;10.49;72.58;101035.50;104852;1262;69295;-61
2023/06/12 03:20:36;;;;;;;7.50;4.10;;;;;;;10.51;72.67;101033.36;104793;1261;69214;-60
2023/06/12 03:23:08;;;;;;;4.80;3.80;;;;;;;10.54;72.94;101032.06;104875;1264;75829;-62
2023/06/12 03:25:40;;;;;;;5.80;4.40;;;;;;;10.61;73.25;101037.81;104921;1262;83433;-64
2023/06/12 03:28:09;;;;;;;5.50;3.50;;;;;;;10.65;73.28;101038.74;104778;1267;73412;-64
2023/06/12 03:30:39;;;;;;;6.40;4.00;;;;;;;10.69;73.34;101041.61;104738;1266;69253;-61
2023/06/12 03:33:09;;;;;;;6.20;4.10;;;;;;;10.71;73.60;101044.00;104943;1260;69326;-64
2023/06/12 03:35:40;;;;;;;5.70;4.30;;;;;;;10.75;73.70;101043.89;104937;1261;74731;-63
2023/06/12 03:38:11;;;;;;;7.60;4.00;;;;;;;10.78;73.69;101047.13;104993;1265;83401;-64
2023/06/12 03:40:40;;;;;;;5.90;4.00;;;;;;;10.82;73.73;101051.05;104838;1261;73806;-60
2023/06/12 03:43:11;;;;;;;6.50;4.40;;;;;;;10.85;73.89;101053.41;104840;1262;69696;-62
2023/06/12 03:45:43;;;;;;;5.50;4.10;;;;;;;10.88;74.16;101052.61;104726;1267;69136;-60
2023/06/12 03:48:12;;;;;;;8.20;4.60;;;;;;;10.96;74.33;101055.21;104818;1261;75505;-53
2023/06/12 03:50:40;;;;;;;8.00;4.50;;;;;;;11.03;74.59;101055.73;104860;1267;82741;-54
2023/06/12 03:53:09;;;;;;;6.20;4.30;;;;;;;11.11;74.57;101057.58;104782;1263;73979;-56
2023/06/12 03:55:38;;;;;;;6.90;4.30;;;;;;;11.19;74.70;101057.86;104964;1261;69320;-57
2023/06/12 03:58:07;;;;;;;6.00;4.40;;;;;;;11.26;74.97;101061.85;104997;1265;69208;-58
2023/06/12 04:00:36;;;;;;;6.50;4.20;;;;;;;11.35;75.12;101057.75;104873;1261;74787;-60
2023/06/12 04:03:08;;;;;;;5.00;4.10;;;;;;;11.43;75.12;101059.42;104797;1265;82744;-60
2023/06/12 04:05:38;;;;;;;5.70;4.50;;;;;;;11.54;75.33;101061.02;104877;1263;73783;-62
2023/06/12 04:08:06;;;;;;;7.40;4.80;;;;;;;11.64;75.38;101064.05;105074;1263;69195;-60
2023/06/12 04:10:35;;;;;;;7.30;4.50;;;;;;;11.73;75.72;101063.06;104957;1262;69283;-61
2023/06/12 04:13:04;;;;;;;6.50;4.50;;;;;;;11.83;75.54;101063.45;104975;1265;75449;-59
2023/06/12 04:15:32;;;;;;;5.30;4.50;;;;;;;11.92;75.67;101065.66;104921;1263;82181;-59
2023/06/12 04:18:01;;;;;;;10.30;5.90;;;;;;;12.01;75.68;101067.30;104934;1265;73560;-58
2023/06/12 04:20:32;;;;;;;11.40;5.50;;;;;;;12.13;75.54;101068.66;104960;1261;69138;-59
2023/06/12 04:23:04;;;;;;;10.20;6.20;;;;;;;12.26;75.23;101065.40;104941;1261;69190;-59
2023/06/12 04:25:35;;;;;;;9.10;5.50;;;;;;;12.38;74.74;101069.76;104987;1260;75490;-59
2023/06/12 04:28:03;;;;;;;7.60;5.30;;;;;;;12.51;74.67;101071.92;105000;1265;84186;-58
2023/06/12 04:30:33;;;;;;;6.50;5.60;;;;;;;12.66;74.55;101074.38;104989;1264;73444;-57
2023/06/12 04:33:03;;;;;;;7.20;5.50;;;;;;;12.78;74.27;101074.49;104788;1262;69254;-57
2023/06/12 04:35:33;;;;;;;6.00;5.30;;;;;;;12.90;73.97;101076.55;105007;1261;69088;-58
2023/06/12 04:38:01;;;;;;;7.90;5.40;;;;;;;13.00;73.80;101076.34;105051;1262;75835;-58
2023/06/12 04:40:30;;;;;;;7.40;5.00;;;;;;;13.10;73.83;101077.38;105016;1265;83175;-59
2023/06/12 04:42:59;;;;;;;7.10;4.70;;;;;;;13.23;73.41;101078.16;104877;1263;73789;-60
2023/06/12 04:45:32;;;;;;;7.00;5.10;;;;;;;13.34;73.31;101083.91;105000;1261;69206;-59
2023/06/12 04:48:02;;;;;;;5.90;4.90;;;;;;;13.43;72.87;101086.18;105015;1265;69094;-59
2023/06/12 04:50:32;;;;;;;7.60;5.20;;;;;;;13.54;72.87;101087.16;105027;1263;75797;-59
2023/06/12 04:53:01;;;;;;;5.90;4.70;;;;;;;13.66;73.01;101088.31;105019;1265;82385;-59
2023/06/12 04:55:30;;;;;;;9.10;5.60;;;;;;;13.77;72.81;101087.70;104853;1262;72820;-58
2023/06/12 04:57:59;;;;;;;8.30;5.40;;;;;;;13.89;72.73;101087.59;104846;1265;69186;-61
2023/06/12 05:00:28;;;;;;;8.90;5.80;;;;;;;14.00;72.54;101091.16;105051;1265;69098;-59
2023/06/12 05:02:59;;;;;;;5.50;4.90;;;;;;;14.11;72.53;101088.27;105031;1261;75666;-59
2023/06/12 05:05:27;;;;;;;7.10;5.60;;;;;;;14.20;72.26;101086.67;104949;1265;84030;-58
2023/06/12 05:07:57;;;;;;;7.60;5.30;;;;;;;14.30;72.19;101085.20;105045;1261;73611;-57
2023/06/12 05:10:25;;;;;;;7.60;5.40;;;;;;;14.40;72.08;101084.77;105082;1261;69196;-58
2023/06/12 05:12:54;;;;;;;7.10;5.10;;;;;;;14.52;72.11;101083.40;105123;1267;69126;-58
2023/06/12 05:15:22;;;;;;;6.00;5.10;;;;;;;14.63;72.11;101082.96;104855;1260;74749;-58
2023/06/12 05:17:51;;;;;;;7.70;5.50;;;;;;;14.73;72.07;101083.21;104830;1265;83455;-58
2023/06/12 05:20:19;;;;;;;7.60;4.90;;;;;;;14.82;71.97;101085.80;104786;1261;73895;-59
2023/06/12 05:22:49;;;;;;;6.50;5.40;;;;;;;14.92;71.84;101082.91;104982;1260;69229;-59
2023/06/12 05:25:18;;;;;;;7.00;4.60;;;;;;;15.03;71.78;101081.58;105063;1265;69196;-60
2023/06/12 05:27:47;;;;;;;5.50;5.00;;;;;;;15.13;71.63;101080.91;104982;1260;74292;-60
2023/06/12 05:30:16;;;;;;;8.60;5.00;;;;;;;15.24;71.56;101081.00;104836;1268;83819;-58
2023/06/12 05:32:45;;;;;;;6.10;4.70;;;;;;;15.34;71.43;101083.86;104901;1261;73507;-59
2023/06/12 05:35:14;;;;;;;7.20;5.30;;;;;;;15.47;71.59;101089.25;105065;1264;69238;-59
2023/06/12 05:37:42;;;;;;;7.90;5.00;;;;;;;15.59;71.45;101090.27;105068;1265;69570;-58
2023/06/12 05:40:13;;;;;;;5.10;4.40;;;;;;;15.71;71.26;101087.27;104855;1265;75937;-59
2023/06/12 05:42:44;;;;;;;5.50;4.60;;;;;;;15.83;71.01;101087.73;105010;1263;83781;-59
2023/06/12 05:45:13;;;;;;;7.40;4.70;;;;;;;15.96;70.93;101089.05;105122;1261;72698;-60
2023/06/12 05:47:42;;;;;;;5.90;4.60;;;;;;;16.10;70.42;101092.08;104921;1265;69153;-58
2023/06/12 05:50:11;;;;;;;6.70;4.30;;;;;;;16.23;70.24;101092.66;105098;1265;69151;-59
2023/06/12 05:52:40;;;;;;;7.10;4.70;;;;;;;16.36;69.89;101093.63;105003;1262;75710;-59
2023/06/12 05:55:09;;;;;;;6.00;4.00;;;;;;;16.49;69.68;101098.08;105106;1265;83336;-59
2023/06/12 05:57:38;;;;;;;5.40;4.20;;;;;;;16.61;69.58;101101.16;104838;1265;212199;-57
2023/06/12 06:00:07;;;;;;;5.60;4.00;;;;;;;16.74;69.40;101103.69;104957;1262;69151;-58
2023/06/12 06:02:45;;;;;;;5.60;3.90;;;;;;;16.85;68.83;101107.71;105126;1262;69148;-58
2023/06/12 06:05:39;;;;;;;6.90;4.30;;;;;;;16.94;68.28;101103.57;104855;1265;75170;-58
2023/06/12 06:08:10;;;;;;;5.00;3.80;;;;;;;17.04;68.23;101106.73;105193;1263;83359;-60
2023/06/12 06:10:43;;;;;;;7.50;4.10;;;;;;;17.12;67.77;101107.19;104871;1266;72385;-59
2023/06/12 06:13:12;;;;;;;8.20;4.30;;;;;;;17.19;67.33;101109.14;104967;1265;69236;-59
2023/06/12 06:15:40;;;;;;;5.70;4.40;;;;;;;17.23;66.95;101109.64;104953;1265;69165;-59
2023/06/12 06:18:09;;;;;;;4.80;4.30;;;;;;;17.29;66.91;101112.98;104946;1261;74701;-58
2023/06/12 06:20:38;;;;;;;5.50;4.20;;;;;;;17.36;66.81;101111.05;105041;1262;82247;-58
2023/06/12 06:23:07;;;;;;;5.10;3.70;;;;;;;17.43;66.47;101115.95;104907;1263;73427;-58
2023/06/12 06:25:36;;;;;;;4.30;3.80;;;;;;;17.50;66.14;101116.12;104958;1265;69975;-58
2023/06/12 06:28:05;;;;;;;6.80;3.90;;;;;;;17.56;66.00;101118.95;105029;1262;69216;-58
2023/06/12 06:30:34;;;;;;;5.80;3.70;;;;;;;17.64;65.96;101121.87;104982;1263;75541;-60
2023/06/12 06:33:02;;;;;;;6.60;3.70;;;;;;;17.74;65.78;101122.94;104830;1264;82494;-59
2023/06/12 06:35:31;;;;;;;6.50;3.40;;;;;;;17.82;65.54;101124.11;105057;1265;73689;-57
2023/06/12 06:38:00;;;;;;;6.60;3.50;;;;;;;17.92;65.35;101125.33;104953;1265;69222;-59
2023/06/12 06:40:28;;;;;;;5.30;3.30;;;;;;;18.03;65.03;101124.86;104907;1262;69186;-59
2023/06/12 06:42:57;;;;;;;5.80;3.40;;;;;;;18.13;64.39;101125.54;104962;1265;73749;-59
2023/06/12 06:45:31;;;;;;;5.00;3.20;;;;;;;18.21;64.22;101124.02;104789;1262;83684;-58
2023/06/12 06:48:00;;;;;;;9.80;3.50;;;;;;;18.33;64.03;101125.96;106145;1261;73855;-59
2023/06/12 06:50:30;;;;;;;6.10;2.90;;;;;;;18.42;63.60;101120.30;104917;1263;69635;-60
2023/06/12 06:52:58;;;;;;;6.20;3.10;;;;;;;18.49;63.11;101123.44;104940;1266;69228;-59
2023/06/12 06:55:27;;;;;;;4.20;3.40;;;;;;;18.56;62.94;101119.48;105129;1265;75771;-60
2023/06/12 06:57:56;;;;;;;5.00;3.30;;;;;;;18.65;62.95;101120.00;104972;1265;83408;-59
2023/06/12 07:00:27;;;;;;;3.70;3.30;;;;;;;18.75;62.71;101121.93;104996;1265;73857;-61
2023/06/12 07:02:56;;;;;;;6.40;3.50;;;;;;;18.84;62.30;101121.79;104972;1262;69098;-59
2023/06/12 07:05:27;;;;;;;9.80;4.60;;;;;;;18.91;61.99;101120.26;105000;1261;69088;-59
2023/06/12 07:07:55;;;;;;;6.70;3.80;;;;;;;19.01;62.12;101120.39;104926;1262;75270;-57
2023/06/12 07:10:32;;;;;;;7.20;3.90;;;;;;;19.13;61.69;101124.27;105236;1265;83352;-61
2023/06/12 07:13:01;;;;;;;14.90;6.60;;;;;;;19.22;61.71;101123.71;104943;1262;73794;-65
2023/06/12 07:15:43;;;;;;;7.00;4.10;;;;;;;19.30;61.30;101127.48;104968;1260;69183;-69
2023/06/12 07:18:13;;;;;;;;;;;;;;;19.34;60.98;101128.10;105045;1261;69149;-60
2023/06/12 07:20:43;;;;;;;4.60;3.50;;;;;;;19.38;60.64;101124.63;104966;1263;74295;-62
2023/06/12 07:23:11;;;;;;;4.40;3.40;;;;;;;19.44;60.39;101128.33;104960;1260;83352;-63
2023/06/12 07:25:40;;;;;;;5.90;3.20;;;;;;;19.50;59.93;101129.95;104937;1263;73556;-62
2023/06/12 07:28:09;;;;;;;4.50;3.20;;;;;;;19.57;59.65;101126.84;104934;1262;69206;-63
2023/06/12 07:30:38;;;;;;;5.70;3.20;;;;;;;19.65;59.05;101129.71;104950;1265;69222;-61
2023/06/12 07:33:06;;;;;;;6.20;2.80;;;;;;;19.70;57.89;101127.27;104984;1263;75634;-62
2023/06/12 07:35:35;;;;;;;6.20;3.30;;;;;;;19.72;57.12;101125.02;104954;1265;82419;-63
2023/06/12 07:38:05;;;;;;;4.10;2.90;;;;;;;19.78;56.58;101125.34;104954;1265;73575;-63
2023/06/12 07:40:34;;;;;;;5.20;3.50;;;;;;;19.81;56.17;101119.86;104965;1265;69289;-61
2023/06/12 07:43:05;;;;;;;3.50;3.00;;;;;;;19.88;56.44;101117.64;104970;1262;69196;-61
2023/06/12 07:45:36;;;;;;;5.20;2.80;;;;;;;19.99;55.55;101112.84;104973;1265;75578;-62
2023/06/12 07:48:05;;;;;;;4.20;2.40;;;;;;;20.08;54.45;101109.42;104906;1265;83624;-63
2023/06/12 07:50:39;;;;;;;2.90;2.30;;;;;;;20.15;53.33;101114.77;104912;1263;73774;-62
2023/06/12 07:53:08;;;;;;;4.20;2.40;;;;;;;20.26;52.69;101113.36;104847;1265;69290;-59
2023/06/12 07:55:55;;;;;;;5.60;2.90;;;;;;;20.36;52.48;101104.73;104781;1263;69164;-63
2023/06/12 07:58:27;;;;;;;4.70;2.60;;;;;;;20.39;52.01;101105.23;104884;1261;74500;-61
2023/06/12 08:00:56;;;;;;;6.80;2.30;;;;;;;20.46;51.56;101100.48;104918;1265;82792;-64
2023/06/12 08:03:25;;;;;;;3.60;2.40;;;;;;;20.55;50.71;101100.78;104919;1265;72398;-63
2023/06/12 08:06:00;;;;;;;4.20;2.00;;;;;;;20.62;49.13;101098.77;104989;1263;69177;-62
2023/06/12 08:08:43;;;;;;;4.70;2.30;;;;;;;20.64;48.55;101104.81;104966;1265;69222;-60
2023/06/12 08:11:13;;;;;;;6.10;2.20;;;;;;;20.62;48.42;101104.80;104820;1265;74720;-64
2023/06/12 08:13:45;;;;;;;3.80;2.20;;;;;;;20.65;48.57;101098.38;104861;1267;83279;-60
2023/06/12 08:16:14;;;;;;;3.70;2.40;;;;;;;20.71;48.30;101096.88;104995;1261;72731;-60
2023/06/12 08:18:45;;;;;;;6.00;2.60;;;;;;;20.78;47.95;101094.42;105012;1261;69212;-61
2023/06/12 08:21:14;;;;;;;5.20;2.50;;;;;;;20.87;47.94;101086.00;105007;1264;69189;-60
2023/06/12 08:23:43;;;;;;;4.80;2.80;;;;;;;20.99;47.68;101086.27;105001;1263;74866;-63
2023/06/12 08:26:11;;;;;;;5.20;2.50;;;;;;;21.08;47.80;101082.91;104991;1265;83458;-61
2023/06/12 08:28:40;;;;;;;3.90;2.60;;;;;;;21.16;47.49;101081.69;104799;1263;72680;-63
2023/06/12 08:31:13;;;;;;;5.50;2.80;;;;;;;21.26;47.23;101082.42;104972;1261;69256;-61
2023/06/12 08:33:42;;;;;;;6.50;2.30;;;;;;;21.35;47.23;101085.48;104950;1265;69137;-61
2023/06/12 08:36:12;;;;;;;3.60;2.50;;;;;;;21.39;46.58;101083.65;104853;1263;75654;-61
2023/06/12 08:38:40;;;;;;;4.10;2.40;;;;;;;21.49;46.30;101076.28;104965;1265;84646;-63
2023/06/12 08:41:09;;;;;;;5.30;2.60;;;;;;;21.65;46.33;101071.91;104931;1263;73336;-64
2023/06/12 08:43:38;;;;;;;4.40;2.30;;;;;;;21.91;45.76;101071.80;104820;1264;69179;-62
2023/06/12 08:46:07;;;;;;;3.10;1.50;;;;;;;22.06;45.28;101072.84;104875;1265;69191;-65
2023/06/12 08:48:36;;;;;;;4.40;2.10;;;;;;;22.20;44.76;101069.48;104917;1266;75005;-66
2023/06/12 08:51:05;;;;;;;4.70;2.30;;;;;;;22.26;43.45;101075.31;104970;1261;83101;-64
2023/06/12 08:53:34;;;;;;;3.30;2.00;;;;;;;22.17;42.74;101077.20;104938;1263;73905;-61
2023/06/12 08:56:02;;;;;;;4.30;2.20;;;;;;;22.25;42.66;101070.21;104832;1267;69231;-63
2023/06/12 08:58:31;;;;;;;4.90;1.90;;;;;;;22.23;41.88;101067.32;104954;1263;69201;-66
2023/06/12 09:01:01;;;;;;;4.60;2.00;;;;;;;22.16;41.56;101065.00;104909;1265;75892;-61
2023/06/12 09:03:31;;;;;;;2.80;2.10;;;;;;;22.32;41.85;101067.70;105022;1265;82522;-61
2023/06/12 09:06:05;;;;;;;5.80;2.40;;;;;;;22.61;41.62;101063.05;104821;1266;73416;-61
2023/06/12 09:08:35;;;;;;;6.30;2.40;;;;;;;22.83;41.29;101066.63;104897;1262;69158;-64
2023/06/12 09:11:04;;;;;;;10.60;2.30;;;;;;;22.87;40.46;101065.42;104816;1267;69212;-62
2023/06/12 09:13:41;;;;;;;3.20;2.00;;;;;;;22.88;40.19;101060.52;104929;1265;74698;-62
2023/06/12 09:16:11;;;;;;;7.20;2.20;;;;;;;22.91;39.92;101064.58;104878;1265;83618;-63
2023/06/12 09:18:54;;;;;;;4.00;2.10;;;;;;;23.08;40.22;101065.77;104805;1263;73513;-64
2023/06/12 09:21:24;;;;;;;3.80;1.90;;;;;;;23.44;40.25;101064.52;104869;1262;69473;-60
2023/06/12 09:23:54;;;;;;;3.80;2.10;;;;;;;23.81;39.79;101061.02;104939;1260;69112;-62
2023/06/12 09:26:22;;;;;;;3.90;2.20;;;;;;;24.06;39.01;101057.20;104952;1265;75919;-63
2023/06/12 09:28:53;;;;;;;4.50;2.30;;;;;;;24.05;38.31;101061.90;104992;1265;83727;-62
2023/06/12 09:31:21;;;;;;;5.10;2.00;;;;;;;23.88;37.84;101060.66;104953;1262;72934;-62
2023/06/12 09:33:52;;;;;;;5.60;1.90;;;;;;;23.81;38.09;101058.45;104958;1265;69550;-60
2023/06/12 09:36:26;;;;;;;7.10;2.20;;;;;;;23.93;37.99;101047.89;105009;1264;69237;-64
2023/06/12 09:38:58;;;;;;;5.80;2.30;;;;;;;24.13;37.98;101050.48;105015;1260;75653;-59
2023/06/12 09:41:26;;;;;;;6.60;2.50;;;;;;;24.35;37.67;101048.11;104969;1265;84582;-62
2023/06/12 09:44:02;;;;;;;5.80;2.40;;;;;;;24.49;37.20;101040.02;105032;1264;73654;-61
2023/06/12 09:46:31;;;;;;;6.80;2.00;;;;;;;24.62;36.77;101037.64;104952;1260;69135;-64
2023/06/12 09:49:01;;;;;;;4.30;2.60;;;;;;;24.72;36.48;101037.27;105052;1260;69084;-61
2023/06/12 09:51:32;;;;;;;3.20;2.10;;;;;;;24.78;36.07;101036.91;105091;1265;74830;-61
2023/06/12 09:54:02;;;;;;;5.40;1.90;;;;;;;24.97;36.50;101035.84;104813;1265;83550;-62
2023/06/12 09:56:31;;;;;;;6.10;2.40;;;;;;;25.25;36.09;101033.92;105021;1260;73716;-61
2023/06/12 09:58:59;;;;;;;3.90;2.10;;;;;;;25.24;35.24;101031.13;105067;1264;69241;-60
2023/06/12 10:01:28;;;;;;;5.10;2.10;;;;;;;25.00;35.13;101036.08;104873;1260;69183;-61
2023/06/12 10:03:58;;;;;;;3.40;1.90;;;;;;;24.87;35.26;101034.02;105061;1264;74694;-64
2023/06/12 10:06:27;;;;;;;4.50;2.20;;;;;;;24.67;35.16;101034.36;105036;1260;83485;-60
2023/06/12 10:08:56;;;;;;;4.30;2.00;;;;;;;24.58;35.17;101032.95;105062;1260;73400;-60
2023/06/12 10:11:25;;;;;;;3.60;2.30;;;;;;;24.62;35.20;101030.61;105040;1265;69189;-63
2023/06/12 10:13:55;;;;;;;6.40;2.10;;;;;;;24.67;34.97;101025.94;105059;1265;69677;-58
2023/06/12 10:16:25;;;;;;;2.90;2.10;;;;;;;24.79;35.32;101025.46;104896;1260;75427;-62
2023/06/12 10:18:55;;;;;;;3.60;2.00;;;;;;;25.01;35.14;101022.91;105035;1260;81654;-62
2023/06/12 10:21:24;;;;;;;;;;;;;;;25.24;34.71;101020.96;105031;1260;73429;-60
2023/06/12 10:23:53;;;;;;;4.80;2.20;;;;;;;25.51;34.34;101017.29;105028;1260;69298;-62
2023/06/12 10:26:22;;;;;;;4.50;2.20;;;;;;;25.63;34.11;101020.50;104892;1260;69157;-60
2023/06/12 10:28:50;;;;;;;5.70;2.20;;;;;;;25.85;33.82;101012.17;104892;1265;74569;-62
2023/06/12 10:31:20;;;;;;;4.20;2.10;;;;;;;26.17;33.97;101006.25;104874;1265;83423;-62
2023/06/12 10:33:58;;;;;;;4.80;2.10;;;;;;;26.50;33.55;101013.34;104957;1260;72670;-65
2023/06/12 10:36:44;;;;;;;3.70;2.00;;;;;;;26.84;33.33;101013.00;105038;1260;69168;-61
2023/06/12 10:39:17;;;;;;;4.50;2.50;;;;;;;27.26;32.63;101014.73;105028;1260;69206;-62
2023/06/12 10:41:53;;;;;;;5.50;2.00;;;;;;;27.36;32.35;101016.39;105044;1260;74779;-65
2023/06/12 10:44:34;;;;;;;5.40;2.20;;;;;;;27.23;31.99;101012.16;105079;1260;83773;-62
2023/06/12 10:47:03;;;;;;;3.20;1.90;;;;;;;26.84;31.67;101009.54;105000;1264;73403;-61
2023/06/12 10:49:54;;;;;;;3.40;1.80;;;;;;;26.70;31.61;100998.71;105029;1264;69223;-65
2023/06/12 10:52:23;;;;;;;5.20;2.10;;;;;;;26.58;31.75;100995.08;105003;1264;69125;-64
2023/06/12 10:55:20;;;;;;;6.40;2.20;;;;;;;26.49;31.90;100990.54;105018;1260;75695;-64
2023/06/12 10:58:00;;;;;;;3.90;2.20;;;;;;;26.35;32.27;100990.16;105028;1263;82273;-63
2023/06/12 11:00:33;;;;;;;3.60;1.90;;;;;;;26.21;32.23;100983.82;105012;1260;72352;-63
2023/06/12 11:03:02;;;;;;;4.10;2.10;;;;;;;26.06;32.29;100977.31;104967;1260;69190;-63
2023/06/12 11:05:34;;;;;;;6.70;2.30;;;;;;;26.32;32.96;100970.99;104915;1264;69218;-65
2023/06/12 11:08:06;;;;;;;6.10;2.30;;;;;;;26.86;32.59;100972.46;104976;1260;75877;-61
2023/06/12 11:10:35;;;;;;;6.90;2.00;;;;;;;27.18;31.70;100972.58;105027;1260;83140;-61
2023/06/12 11:13:04;;;;;;;4.50;2.00;;;;;;;27.57;31.76;100968.71;105018;1265;73606;-60
2023/06/12 11:15:43;;;;;;;5.60;2.00;;;;;;;28.02;31.01;100959.17;105074;1265;69212;-61
2023/06/12 11:18:13;;;;;;;5.00;2.20;;;;;;;28.37;30.58;100954.90;105010;1265;69208;-65
2023/06/12 11:20:42;;;;;;;2.80;2.00;;;;;;;28.75;30.33;100953.59;104983;1260;74333;-60
2023/06/12 11:23:10;;;;;;;6.60;2.40;;;;;;;29.33;30.01;100947.92;105074;1260;83327;-61
2023/06/12 11:25:44;;;;;;;3.80;2.60;;;;;;;29.77;29.60;100950.36;105040;1265;74100;-62
2023/06/12 11:28:15;;;;;;;4.40;2.10;;;;;;;30.02;29.42;100943.96;104832;1266;69249;-62
2023/06/12 11:30:48;;;;;;;5.30;2.30;;;;;;;29.76;28.87;100942.05;105079;1264;69093;-62
2023/06/12 11:33:36;;;;;;;3.80;2.00;;;;;;;29.16;28.91;100938.13;105051;1261;74584;-66